createdAt,value
2023-02-09T00:02:57.784Z,-2.56
2023-02-09T00:17:58.843Z,-2.88
2023-02-09T00:32:58.967Z,-3.17
2023-02-09T00:47:59.539Z,-3.63
2023-02-09T01:02:59.723Z,-4.14
2023-02-09T01:18:00.382Z,-4.47
2023-02-09T01:33:00.955Z,-4.96
2023-02-09T01:48:01.705Z,-5.37
2023-02-09T02:03:01.927Z,-5.71
2023-02-09T02:18:02.534Z,-5.97
2023-02-09T02:33:03.064Z,-6.34
2023-02-09T02:48:03.264Z,-6.47
2023-02-09T03:03:03.882Z,-6.46
2023-02-09T03:18:04.123Z,-6.22
2023-02-09T03:33:05.047Z,-5.84
2023-02-09T03:48:05.293Z,-5.35
2023-02-09T04:03:05.877Z,-4.78
2023-02-09T04:18:06.198Z,-4.58
2023-02-09T04:33:06.725Z,-4.30
2023-02-09T04:48:07.771Z,-4.33
2023-02-09T05:03:08.452Z,-4.35
2023-02-09T05:18:09.557Z,-4.24
2023-02-09T05:33:10.573Z,-4.32
2023-02-09T05:48:10.798Z,-4.33
2023-02-09T06:03:11.460Z,-4.46
2023-02-09T06:18:12.525Z,-4.50
2023-02-09T06:33:13.598Z,-4.54
2023-02-09T06:48:14.702Z,-4.58
2023-02-09T07:03:15.828Z,-4.49
2023-02-09T07:18:16.462Z,-4.36
2023-02-09T07:33:17.063Z,-4.10
2023-02-09T07:48:17.808Z,-3.57
2023-02-09T08:03:18.288Z,-2.43
2023-02-09T08:18:19.337Z,-1.27
2023-02-09T08:33:19.933Z,-0.34
2023-02-09T08:48:20.166Z,0.35
2023-02-09T09:03:21.177Z,1.32
2023-02-09T09:18:21.352Z,1.95
2023-02-09T09:33:21.974Z,2.57
2023-02-09T09:48:23.002Z,2.81
2023-02-09T10:03:23.151Z,3.52
2023-02-09T10:18:24.216Z,3.96
2023-02-09T10:33:24.754Z,4.12
2023-02-09T10:48:25.412Z,4.23
2023-02-09T11:03:25.586Z,4.16
2023-02-09T11:18:26.207Z,5.00
2023-02-09T11:33:26.770Z,5.27
2023-02-09T11:48:27.383Z,5.21
2023-02-09T12:03:27.964Z,4.85
2023-02-09T12:18:28.564Z,5.07
2023-02-09T12:33:29.152Z,4.82
2023-02-09T12:48:29.774Z,5.20
2023-02-09T13:03:30.906Z,5.13
2023-02-09T13:18:31.967Z,5.10
2023-02-09T13:33:32.560Z,5.00
2023-02-09T13:48:33.187Z,4.67
2023-02-09T14:03:33.767Z,4.67
2023-02-09T14:18:34.369Z,4.47
2023-02-09T14:33:34.958Z,4.08
2023-02-09T14:48:35.551Z,3.83
2023-02-09T15:03:36.566Z,3.58
2023-02-09T15:18:37.791Z,3.20
2023-02-09T15:33:39.372Z,2.95
2023-02-09T15:48:39.956Z,2.57
2023-02-09T16:03:40.549Z,2.12
2023-02-09T16:18:42.600Z,1.65
2023-02-09T16:33:43.172Z,1.24
2023-02-09T16:48:43.381Z,0.83
2023-02-09T17:03:43.978Z,0.78
2023-02-09T17:18:44.595Z,0.78
2023-02-09T17:33:45.202Z,0.88
2023-02-09T17:48:46.233Z,0.83
2023-02-09T18:03:46.822Z,0.76
2023-02-09T18:18:47.025Z,0.57
2023-02-09T18:33:47.651Z,0.47
2023-02-09T18:48:48.260Z,0.35
2023-02-09T19:03:48.830Z,0.17
2023-02-09T19:18:49.872Z,-0.04
2023-02-09T19:33:50.486Z,-0.26
2023-02-09T19:48:50.688Z,-0.42
2023-02-09T20:03:51.304Z,-0.62
2023-02-09T20:18:51.959Z,-0.69
2023-02-09T20:33:53.510Z,-0.89
2023-02-09T20:48:53.946Z,-0.94
2023-02-09T21:03:54.355Z,-0.98
2023-02-09T21:18:54.980Z,-0.91
2023-02-09T21:33:56.918Z,-0.55
2023-02-09T21:48:58.512Z,-0.05
2023-02-09T22:03:59.558Z,0.39
2023-02-09T22:19:00.181Z,0.66
2023-02-09T22:34:00.897Z,0.83
2023-02-09T22:49:01.976Z,0.96
2023-02-09T23:04:02.648Z,1.09
2023-02-09T23:19:03.227Z,1.22
2023-02-09T23:34:04.275Z,1.18
2023-02-09T23:49:04.856Z,1.08
